createdAt,value
2022-12-05T00:04:54.062Z,18.48
2022-12-05T00:09:56.323Z,19.08
2022-12-05T00:14:58.217Z,19.15
2022-12-05T00:20:00.250Z,20.05
2022-12-05T00:25:02.051Z,20.42
2022-12-05T00:30:04.497Z,19.85
2022-12-05T00:35:06.349Z,20.08
2022-12-05T00:40:08.541Z,20.63
2022-12-05T00:45:10.697Z,20.85
2022-12-05T00:50:12.327Z,20.35
2022-12-05T00:55:14.053Z,21.23
2022-12-05T01:00:16.283Z,20.48
2022-12-05T01:05:17.920Z,20.23
2022-12-05T01:10:19.616Z,20.70
2022-12-05T01:15:21.278Z,20.45
2022-12-05T01:20:22.929Z,20.80
2022-12-05T01:25:24.593Z,19.83
2022-12-05T01:30:26.434Z,21.25
2022-12-05T01:35:28.063Z,21.48
2022-12-05T01:40:29.734Z,19.50
2022-12-05T01:45:36.643Z,19.80
2022-12-05T01:50:38.592Z,20.23
2022-12-05T01:55:40.335Z,22.52
2022-12-05T02:00:42.502Z,21.75
2022-12-05T02:05:48.242Z,20.95
2022-12-05T02:10:53.279Z,21.65
2022-12-05T02:16:16.480Z,21.48
2022-12-05T02:21:29.019Z,20.55
2022-12-05T02:26:30.609Z,20.80
2022-12-05T02:31:39.367Z,20.52
2022-12-05T02:36:49.821Z,19.67
2022-12-05T02:41:57.612Z,20.70
2022-12-05T02:47:00.792Z,20.65
2022-12-05T02:52:05.732Z,18.48
2022-12-05T02:57:09.963Z,18.55
2022-12-05T03:02:24.924Z,19.05
2022-12-05T03:07:29.257Z,17.90
2022-12-05T03:12:39.842Z,16.73
2022-12-05T03:17:51.354Z,16.73
2022-12-05T03:22:59.057Z,15.80
2022-12-05T03:28:18.940Z,14.48
2022-12-05T03:33:26.104Z,14.80
2022-12-05T03:38:33.621Z,15.10
2022-12-05T03:43:49.185Z,15.27
2022-12-05T03:48:59.259Z,13.65
2022-12-05T03:54:16.071Z,15.20
2022-12-05T03:59:34.627Z,14.88
2022-12-05T04:04:40.477Z,13.98
2022-12-05T04:09:59.463Z,14.13
2022-12-05T04:15:08.194Z,14.88
2022-12-05T04:20:59.939Z,14.23
2022-12-05T04:26:18.872Z,15.02
2022-12-05T04:31:40.302Z,14.85
2022-12-05T04:36:51.805Z,14.10
2022-12-05T04:41:58.740Z,15.18
2022-12-05T04:47:04.597Z,13.93
2022-12-05T04:52:12.059Z,13.40
2022-12-05T04:57:19.528Z,13.88
2022-12-05T05:02:39.387Z,12.95
2022-12-05T05:07:50.917Z,13.23
2022-12-05T05:12:52.762Z,12.85
2022-12-05T05:17:54.468Z,12.23
2022-12-05T05:22:58.098Z,14.48
2022-12-05T05:27:59.785Z,15.20
2022-12-05T05:33:01.460Z,13.93
2022-12-05T05:38:03.529Z,13.15
2022-12-05T05:43:05.309Z,13.65
2022-12-05T05:48:07.023Z,13.73
2022-12-05T05:53:08.646Z,15.32
2022-12-05T05:58:10.280Z,21.85
2022-12-05T06:03:12.112Z,118.97
2022-12-05T06:08:13.981Z,83.50
2022-12-05T06:13:15.680Z,34.60
2022-12-05T06:18:17.733Z,31.00
2022-12-05T06:23:19.440Z,31.08
2022-12-05T06:28:23.374Z,28.95
2022-12-05T06:33:25.265Z,29.23
2022-12-05T06:38:26.924Z,27.38
2022-12-05T06:43:28.697Z,27.15
2022-12-05T06:48:30.457Z,29.52
2022-12-05T06:53:32.600Z,29.75
2022-12-05T06:58:34.723Z,31.77
2022-12-05T07:03:36.626Z,29.55
2022-12-05T07:08:38.355Z,31.08
2022-12-05T07:13:40.072Z,34.03
2022-12-05T07:18:41.946Z,38.88
2022-12-05T07:23:45.522Z,43.42
2022-12-05T07:28:48.515Z,43.85
2022-12-05T07:33:57.664Z,41.40
2022-12-05T07:38:59.579Z,41.30
2022-12-05T07:44:01.248Z,37.35
2022-12-05T07:49:03.242Z,41.75
2022-12-05T07:54:05.058Z,35.85
2022-12-05T07:59:06.693Z,34.35
2022-12-05T08:04:13.571Z,34.58
2022-12-05T08:09:16.932Z,36.28
2022-12-05T08:14:18.658Z,34.63
2022-12-05T08:19:20.347Z,34.45
2022-12-05T08:24:22.158Z,34.83
2022-12-05T08:29:23.817Z,35.03
2022-12-05T08:34:25.466Z,35.60
2022-12-05T08:39:27.422Z,36.35
2022-12-05T08:44:29.070Z,36.05
2022-12-05T08:49:30.776Z,38.85
2022-12-05T08:54:32.445Z,39.63
2022-12-05T08:59:34.132Z,42.75
2022-12-05T09:04:35.758Z,40.08
2022-12-05T09:09:37.715Z,36.40
2022-12-05T09:14:39.403Z,32.95
2022-12-05T09:19:41.146Z,37.90
2022-12-05T09:24:42.781Z,39.22
2022-12-05T09:29:44.457Z,37.67
2022-12-05T09:34:46.233Z,36.75
2022-12-05T09:39:48.036Z,37.60
2022-12-05T09:44:49.637Z,49.88
2022-12-05T09:49:55.969Z,49.67
2022-12-05T09:55:05.239Z,56.80
2022-12-05T10:00:09.810Z,66.13
2022-12-05T10:05:19.590Z,43.47
2022-12-05T10:10:28.734Z,37.35
2022-12-05T10:15:45.926Z,38.63
2022-12-05T10:21:15.215Z,42.50
2022-12-05T10:26:17.256Z,21.73
2022-12-05T10:31:25.707Z,19.05
2022-12-05T10:36:27.458Z,15.73
2022-12-05T10:41:29.205Z,14.48
2022-12-05T10:46:31.288Z,12.73
2022-12-05T10:51:37.504Z,13.18
2022-12-05T10:56:43.930Z,14.30
2022-12-05T11:01:52.333Z,11.82
2022-12-05T11:06:59.305Z,13.18
2022-12-05T11:12:09.492Z,11.48
2022-12-05T11:17:24.465Z,12.35
2022-12-05T11:22:35.025Z,10.65
2022-12-05T11:27:36.819Z,10.90
2022-12-05T11:32:39.548Z,9.38
2022-12-05T11:37:58.058Z,8.43
2022-12-05T11:43:38.199Z,7.88
2022-12-05T11:49:28.224Z,8.15
2022-12-05T11:55:06.343Z,8.07
2022-12-05T12:00:31.521Z,7.80
2022-12-05T12:05:50.393Z,8.52
2022-12-05T12:11:12.591Z,7.85
2022-12-05T12:16:21.894Z,7.43
2022-12-05T12:21:36.924Z,8.55
2022-12-05T12:26:42.792Z,8.50
2022-12-05T12:31:53.665Z,7.93
2022-12-05T12:37:03.620Z,9.32
2022-12-05T12:42:21.434Z,8.27
2022-12-05T12:47:40.070Z,8.80
2022-12-05T12:52:51.084Z,7.60
2022-12-05T12:58:19.380Z,7.38
2022-12-05T13:03:27.230Z,8.80
2022-12-05T13:08:32.856Z,8.00
2022-12-05T13:13:40.591Z,8.05
2022-12-05T13:18:42.299Z,8.70
2022-12-05T13:23:49.210Z,7.03
2022-12-05T13:28:58.126Z,8.25
2022-12-05T13:33:59.775Z,8.90
2022-12-05T13:39:26.353Z,8.75
2022-12-05T13:44:36.025Z,9.40
2022-12-05T13:49:50.886Z,10.60
2022-12-05T13:55:33.881Z,6.65
2022-12-05T14:00:37.503Z,6.03
2022-12-05T14:05:44.821Z,6.18
2022-12-05T14:10:46.387Z,6.55
2022-12-05T14:15:51.855Z,8.30
2022-12-05T14:21:17.831Z,9.55
2022-12-05T14:26:49.019Z,10.17
2022-12-05T14:32:25.584Z,8.73
2022-12-05T14:37:30.153Z,9.50
2022-12-05T14:42:42.981Z,12.48
2022-12-05T14:47:52.251Z,10.93
2022-12-05T14:53:22.136Z,8.65
2022-12-05T14:58:30.758Z,10.05
2022-12-05T15:03:37.113Z,9.13
2022-12-05T15:08:49.278Z,10.50
2022-12-05T15:13:51.932Z,10.07
2022-12-05T15:19:04.248Z,11.25
2022-12-05T15:24:13.374Z,10.68
2022-12-05T15:29:28.443Z,11.07
2022-12-05T15:34:53.677Z,11.50
2022-12-05T15:40:02.577Z,11.18
2022-12-05T15:45:13.589Z,12.50
2022-12-05T15:50:37.046Z,12.48
2022-12-05T15:55:46.376Z,13.18
2022-12-05T16:00:52.404Z,12.57
2022-12-05T16:06:11.155Z,12.70
2022-12-05T16:11:15.337Z,13.25
2022-12-05T16:16:24.175Z,13.50
2022-12-05T16:21:38.520Z,13.73
2022-12-05T16:26:57.739Z,13.75
2022-12-05T16:32:03.824Z,12.50
2022-12-05T16:37:08.220Z,14.60
2022-12-05T16:42:37.987Z,13.65
2022-12-05T16:47:54.411Z,15.07
2022-12-05T16:58:07.859Z,14.07
2022-12-05T17:03:33.975Z,13.90
2022-12-05T17:08:37.274Z,14.38
2022-12-05T17:13:39.312Z,14.27
2022-12-05T17:18:41.551Z,14.02
2022-12-05T17:23:51.498Z,14.38
2022-12-05T17:28:57.009Z,11.38
2022-12-05T17:33:59.924Z,11.32
2022-12-05T17:39:02.932Z,11.13
2022-12-05T17:44:08.282Z,12.48
2022-12-05T17:49:19.163Z,12.63
2022-12-05T17:54:26.663Z,11.48
2022-12-05T17:59:28.451Z,13.43
2022-12-05T18:04:30.733Z,14.15
2022-12-05T18:09:33.417Z,12.52
2022-12-05T18:14:36.421Z,12.27
2022-12-05T18:19:38.362Z,13.15
2022-12-05T18:24:40.310Z,13.18
2022-12-05T18:29:42.721Z,13.82
2022-12-05T18:34:46.177Z,12.48
2022-12-05T18:39:53.449Z,12.55
2022-12-05T18:44:58.650Z,13.40
2022-12-05T18:50:02.851Z,12.15
2022-12-05T18:55:31.158Z,10.10
2022-12-05T19:00:27.636Z,10.07
2022-12-05T19:05:32.248Z,10.27
2022-12-05T19:10:35.997Z,9.70
2022-12-05T19:15:38.455Z,9.43
2022-12-05T19:20:40.763Z,11.55
2022-12-05T19:25:42.875Z,9.70
2022-12-05T19:30:46.063Z,13.27
2022-12-05T19:35:56.899Z,13.00
2022-12-05T19:40:59.871Z,12.45
2022-12-05T19:46:08.437Z,10.52
2022-12-05T19:51:11.247Z,9.07
2022-12-05T19:56:20.122Z,8.73
2022-12-05T20:01:37.973Z,8.82
2022-12-05T20:06:48.122Z,9.93
2022-12-05T20:11:55.196Z,14.57
2022-12-05T20:16:57.548Z,11.55
2022-12-05T20:21:59.412Z,14.27
2022-12-05T20:27:01.939Z,15.85
2022-12-05T20:32:03.712Z,12.07
2022-12-05T20:37:05.310Z,16.83
2022-12-05T20:42:07.001Z,14.40
2022-12-05T20:47:08.709Z,11.10
2022-12-05T20:52:10.343Z,14.43
2022-12-05T20:57:12.263Z,12.23
2022-12-05T21:02:13.948Z,11.65
2022-12-05T21:07:15.640Z,15.02
2022-12-05T21:12:17.305Z,4.72
2022-12-05T21:17:19.079Z,5.15
2022-12-05T21:22:20.742Z,11.38
2022-12-05T21:27:22.421Z,4.10
2022-12-05T21:32:24.040Z,6.70
2022-12-05T21:37:25.831Z,4.00
2022-12-05T21:42:27.621Z,4.00
2022-12-05T21:47:29.574Z,4.75
2022-12-05T21:52:39.235Z,4.57
2022-12-05T21:57:40.895Z,4.13
2022-12-05T22:02:42.607Z,4.88
2022-12-05T22:07:44.424Z,3.78
2022-12-05T22:12:46.160Z,5.38
2022-12-05T22:17:47.810Z,4.40
2022-12-05T22:22:50.600Z,4.78
2022-12-05T22:27:52.215Z,3.70
2022-12-05T22:32:53.943Z,4.63
2022-12-05T22:37:55.560Z,5.43
2022-12-05T22:42:57.307Z,5.00
2022-12-05T22:47:58.942Z,4.38
2022-12-05T22:53:00.740Z,5.03
2022-12-05T22:58:02.361Z,3.67
2022-12-05T23:03:04.446Z,4.40
2022-12-05T23:08:07.120Z,4.90
2022-12-05T23:13:09.359Z,4.28
2022-12-05T23:18:11.017Z,4.43
2022-12-05T23:23:12.758Z,4.63
2022-12-05T23:28:14.368Z,4.30
2022-12-05T23:33:16.000Z,4.88
2022-12-05T23:38:17.614Z,5.10
2022-12-05T23:43:19.221Z,4.50
2022-12-05T23:48:21.020Z,4.25
2022-12-05T23:53:22.696Z,4.32
2022-12-05T23:58:24.351Z,5.05
